createdAt,value
2017-10-03T00:01:05.639Z,97069.36
2017-10-03T00:03:33.126Z,97060.80
2017-10-03T00:06:00.549Z,97060.38
2017-10-03T00:08:27.956Z,97057.21
2017-10-03T00:10:55.791Z,97057.21
2017-10-03T00:13:23.218Z,97054.47
2017-10-03T00:15:50.679Z,97055.02
2017-10-03T00:18:18.695Z,97048.27
2017-10-03T00:20:46.118Z,97044.45
2017-10-03T00:23:13.534Z,97039.52
2017-10-03T00:25:41.575Z,97034.98
2017-10-03T00:28:09.001Z,97029.08
2017-10-03T00:30:36.404Z,97023.17
2017-10-03T00:33:03.870Z,97019.06
2017-10-03T00:35:31.280Z,97015.92
2017-10-03T00:37:58.685Z,97016.97
2017-10-03T00:40:26.530Z,97023.72
2017-10-03T00:42:53.948Z,97022.45
2017-10-03T00:45:21.367Z,97018.96
2017-10-03T00:47:48.836Z,97014.42
2017-10-03T00:50:16.247Z,97016.45
2017-10-03T00:52:43.720Z,97017.39
2017-10-03T00:55:11.181Z,97009.17
2017-10-03T00:57:38.692Z,97009.89
2017-10-03T01:00:06.257Z,96999.28
2017-10-03T01:02:33.849Z,96995.59
2017-10-03T01:05:01.283Z,96983.25
2017-10-03T01:07:28.708Z,96981.33
2017-10-03T01:09:56.183Z,96980.81
2017-10-03T01:12:23.599Z,96977.77
2017-10-03T01:14:51.122Z,96974.18
2017-10-03T01:17:18.739Z,96977.91
2017-10-03T01:19:46.149Z,96966.81
2017-10-03T01:22:13.562Z,96961.75
2017-10-03T01:24:41.020Z,96956.37
2017-10-03T01:27:08.425Z,96953.92
2017-10-03T01:29:35.850Z,96937.47
2017-10-03T01:32:03.298Z,96940.34
2017-10-03T01:34:30.712Z,96933.62
2017-10-03T01:36:58.141Z,96931.30
2017-10-03T01:39:25.581Z,96928.56
2017-10-03T01:41:53.051Z,96934.86
2017-10-03T01:44:20.537Z,96928.86
2017-10-03T01:46:48.803Z,96927.29
2017-10-03T01:49:16.219Z,96917.27
2017-10-03T01:51:43.722Z,96906.73
2017-10-03T01:54:11.164Z,96904.55
2017-10-03T01:56:38.620Z,96894.95
2017-10-03T01:59:06.041Z,96888.92
2017-10-03T02:01:33.819Z,96879.03
2017-10-03T02:04:01.226Z,96865.84
2017-10-03T02:06:28.632Z,96853.64
2017-10-03T02:08:56.503Z,96845.29
2017-10-03T02:11:23.916Z,96839.13
2017-10-03T02:13:51.326Z,96847.08
2017-10-03T02:16:18.875Z,96851.75
2017-10-03T02:18:46.308Z,96852.56
2017-10-03T02:21:13.724Z,96853.70
2017-10-03T02:23:41.167Z,96853.19
2017-10-03T02:26:08.584Z,96855.20
2017-10-03T02:28:36.043Z,96858.96
2017-10-03T02:31:03.492Z,96852.27
2017-10-03T02:33:30.926Z,96835.70
2017-10-03T02:35:58.370Z,96826.36
2017-10-03T02:38:25.989Z,96830.34
2017-10-03T02:40:53.416Z,96825.94
2017-10-03T02:43:20.829Z,96832.37
2017-10-03T02:45:48.653Z,96830.47
2017-10-03T02:48:16.127Z,96833.73
2017-10-03T02:50:43.537Z,96830.34
2017-10-03T02:53:10.989Z,96819.80
2017-10-03T02:55:38.404Z,96816.87
2017-10-03T02:58:05.824Z,96810.67
2017-10-03T03:00:33.616Z,96806.04
2017-10-03T03:03:01.018Z,96796.02
2017-10-03T03:05:28.443Z,96789.46
2017-10-03T03:07:55.890Z,96789.59
2017-10-03T03:10:23.306Z,96787.50
2017-10-03T03:12:50.736Z,96792.33
2017-10-03T03:15:18.195Z,96788.81
2017-10-03T03:17:45.664Z,96792.20
2017-10-03T03:20:13.073Z,96795.92
2017-10-03T03:22:40.915Z,96785.35
2017-10-03T03:25:08.328Z,96784.41
2017-10-03T03:27:35.736Z,96783.16
2017-10-03T03:30:03.202Z,96777.06
2017-10-03T03:32:30.691Z,96782.16
2017-10-03T03:34:58.129Z,96780.23
2017-10-03T03:37:25.759Z,96786.42
2017-10-03T03:39:53.169Z,96782.88
2017-10-03T03:42:20.599Z,96782.73
2017-10-03T03:44:48.040Z,96783.59
2017-10-03T03:47:15.459Z,96775.89
2017-10-03T03:49:42.887Z,96772.01
2017-10-03T03:52:10.598Z,96770.93
2017-10-03T03:54:38.163Z,96770.41
2017-10-03T03:57:05.646Z,96764.41
2017-10-03T03:59:34.184Z,96763.69
2017-10-03T04:02:01.603Z,96759.02
2017-10-03T04:04:29.014Z,96754.81
2017-10-03T04:06:56.508Z,96749.98
2017-10-03T04:09:23.912Z,96747.77
2017-10-03T04:11:51.400Z,96750.93
2017-10-03T04:14:19.246Z,96747.41
2017-10-03T04:16:46.662Z,96745.45
2017-10-03T04:19:14.114Z,96738.59
2017-10-03T04:21:41.566Z,96726.69
2017-10-03T04:24:08.977Z,96733.83
2017-10-03T04:26:36.403Z,96738.47
2017-10-03T04:29:03.867Z,96722.81
2017-10-03T04:31:31.320Z,96719.41
2017-10-03T04:33:58.740Z,96722.25
2017-10-03T04:36:26.359Z,96715.72
2017-10-03T04:38:53.771Z,96717.48
2017-10-03T04:41:21.183Z,96719.52
2017-10-03T04:43:48.665Z,96697.59
2017-10-03T04:46:16.091Z,96703.07
2017-10-03T04:48:43.499Z,96699.09
2017-10-03T04:51:10.959Z,96715.83
2017-10-03T04:53:38.382Z,96708.03
2017-10-03T04:56:05.806Z,96699.94
2017-10-03T04:58:33.374Z,96703.63
2017-10-03T05:01:00.780Z,96706.23
2017-10-03T05:03:28.198Z,96697.59
2017-10-03T05:05:55.946Z,96693.91
2017-10-03T05:08:23.373Z,96701.02
2017-10-03T05:10:50.819Z,96698.27
2017-10-03T05:13:18.621Z,96702.91
2017-10-03T05:15:46.122Z,96695.77
2017-10-03T05:18:13.527Z,96695.34
2017-10-03T05:20:41.317Z,96703.92
2017-10-03T05:23:08.727Z,96693.68
2017-10-03T05:25:36.150Z,96686.05
2017-10-03T05:28:03.920Z,96703.33
2017-10-03T05:30:31.334Z,96687.05
2017-10-03T05:32:58.761Z,96694.55
2017-10-03T05:35:26.347Z,96695.11
2017-10-03T05:37:53.753Z,96699.45
2017-10-03T05:40:21.171Z,96699.88
2017-10-03T05:42:48.634Z,96707.80
2017-10-03T05:45:16.076Z,96701.11
2017-10-03T05:47:43.521Z,96705.58
2017-10-03T05:50:10.977Z,96703.55
2017-10-03T05:52:38.394Z,96701.53
2017-10-03T05:55:05.838Z,96720.29
2017-10-03T05:57:33.274Z,96720.29
2017-10-03T06:00:00.695Z,96716.73
2017-10-03T06:02:28.117Z,96731.91
2017-10-03T06:04:55.580Z,96730.08
2017-10-03T06:07:22.996Z,96728.45
2017-10-03T06:09:50.417Z,96726.42
2017-10-03T06:12:17.882Z,96723.87
2017-10-03T06:14:45.300Z,96715.09
2017-10-03T06:17:12.991Z,96706.55
2017-10-03T06:19:40.448Z,96703.44
2017-10-03T06:22:08.078Z,96720.41
2017-10-03T06:24:35.884Z,96717.31
2017-10-03T06:27:03.344Z,96717.16
2017-10-03T06:29:30.767Z,96722.14
2017-10-03T06:31:58.451Z,96729.88
2017-10-03T06:34:25.905Z,96728.21
2017-10-03T06:36:53.353Z,96724.88
2017-10-03T06:39:20.965Z,96720.71
2017-10-03T06:41:48.431Z,96725.17
2017-10-03T06:44:16.311Z,96748.97
2017-10-03T06:46:43.723Z,96780.84
2017-10-03T06:49:11.259Z,96808.41
2017-10-03T06:51:38.834Z,96813.08
2017-10-03T06:54:06.256Z,96831.29
2017-10-03T06:56:33.851Z,96848.81
2017-10-03T06:59:01.277Z,96854.00
2017-10-03T07:01:28.695Z,96860.56
2017-10-03T07:03:56.139Z,96847.87
2017-10-03T07:06:23.553Z,96849.08
2017-10-03T07:08:50.957Z,96866.04
2017-10-03T07:11:18.449Z,96887.02
2017-10-03T07:13:45.862Z,96900.11
2017-10-03T07:16:13.277Z,96914.49
2017-10-03T07:18:40.727Z,96912.28
2017-10-03T07:21:08.142Z,96928.13
2017-10-03T07:23:35.667Z,96921.08
2017-10-03T07:26:03.101Z,96913.28
2017-10-03T07:28:30.513Z,96919.06
2017-10-03T07:30:57.935Z,96917.03
2017-10-03T07:33:25.378Z,96935.20
2017-10-03T07:35:52.778Z,96926.43
2017-10-03T07:38:20.219Z,96937.23
2017-10-03T07:40:47.667Z,96958.63
2017-10-03T07:43:15.082Z,96967.37
2017-10-03T07:45:42.502Z,96966.95
2017-10-03T07:48:09.980Z,96984.47
2017-10-03T07:50:37.385Z,96994.78
2017-10-03T07:53:04.820Z,97012.89
2017-10-03T07:55:32.270Z,97020.69
2017-10-03T07:57:59.791Z,97034.81
2017-10-03T08:00:27.226Z,97042.88
2017-10-03T08:02:54.676Z,97042.02
2017-10-03T08:05:22.090Z,97046.13
2017-10-03T08:07:49.622Z,97063.58
2017-10-03T08:10:17.170Z,97069.35
2017-10-03T08:12:44.594Z,97076.41
2017-10-03T08:15:11.993Z,97082.53
2017-10-03T08:17:39.448Z,97098.85
2017-10-03T08:20:06.860Z,97106.65
2017-10-03T08:22:34.513Z,97099.50
2017-10-03T08:25:02.089Z,97099.20
2017-10-03T08:27:29.573Z,97099.08
2017-10-03T08:29:56.988Z,97103.09
2017-10-03T08:32:24.459Z,97092.00
2017-10-03T08:34:51.874Z,97089.04
2017-10-03T08:37:19.285Z,97084.08
2017-10-03T08:39:46.734Z,97114.45
2017-10-03T08:42:14.145Z,97125.11
2017-10-03T08:44:41.563Z,97141.38
2017-10-03T08:47:09.022Z,97152.22
2017-10-03T08:49:36.446Z,97172.13
2017-10-03T08:52:03.943Z,97179.92
2017-10-03T08:54:31.394Z,97188.79
2017-10-03T08:56:59.187Z,97203.05
2017-10-03T08:59:26.602Z,97214.73
2017-10-03T09:01:54.206Z,97219.06
2017-10-03T09:04:21.625Z,97219.78
2017-10-03T09:06:49.060Z,97227.89
2017-10-03T09:09:16.619Z,97229.25
2017-10-03T09:11:44.152Z,97235.08
2017-10-03T09:14:11.619Z,97232.89
2017-10-03T09:16:39.061Z,97235.84
2017-10-03T09:19:06.489Z,97244.58
2017-10-03T09:21:33.914Z,97252.38
2017-10-03T09:24:01.371Z,97256.41
2017-10-03T09:26:28.786Z,97253.31
2017-10-03T09:28:56.265Z,97258.08
2017-10-03T09:31:23.707Z,97265.35
2017-10-03T09:33:51.285Z,97269.46
2017-10-03T09:36:18.761Z,97268.09
2017-10-03T09:38:46.220Z,97275.77
2017-10-03T09:41:13.629Z,97282.09
2017-10-03T09:43:41.113Z,97280.72
2017-10-03T09:46:08.559Z,97284.84
2017-10-03T09:48:36.056Z,97290.14
2017-10-03T09:51:03.466Z,97298.67
2017-10-03T09:53:30.929Z,97295.72
2017-10-03T09:55:58.354Z,97306.80
2017-10-03T09:58:25.770Z,97307.44
2017-10-03T10:00:53.225Z,97314.12
2017-10-03T10:03:20.635Z,97319.83
2017-10-03T10:05:48.086Z,97322.91
2017-10-03T10:08:15.656Z,97329.54
2017-10-03T10:10:43.069Z,97329.59
2017-10-03T10:13:10.475Z,97337.59
2017-10-03T10:15:37.936Z,97339.82
2017-10-03T10:18:05.747Z,97346.89
2017-10-03T10:20:33.188Z,97335.80
2017-10-03T10:23:00.730Z,97332.23
2017-10-03T10:25:28.152Z,97334.43
2017-10-03T10:27:55.580Z,97345.64
2017-10-03T10:30:23.024Z,97351.00
2017-10-03T10:32:50.507Z,97348.13
2017-10-03T10:35:17.928Z,97348.73
2017-10-03T10:37:45.425Z,97349.03
2017-10-03T10:40:12.840Z,97351.02
2017-10-03T10:42:40.264Z,97354.95
2017-10-03T10:45:08.151Z,97359.23
2017-10-03T10:47:35.577Z,97361.88
2017-10-03T10:50:02.994Z,97369.90
2017-10-03T10:52:30.450Z,97377.30
2017-10-03T10:54:57.867Z,97375.29
2017-10-03T10:57:25.300Z,97373.92
2017-10-03T10:59:52.733Z,97376.02
2017-10-03T11:02:20.175Z,97380.26
2017-10-03T11:04:47.642Z,97377.21
2017-10-03T11:07:15.174Z,97383.34
2017-10-03T11:09:42.599Z,97379.83
2017-10-03T11:12:10.032Z,97378.03
2017-10-03T11:14:37.637Z,97374.47
2017-10-03T11:17:05.369Z,97372.55
2017-10-03T11:19:32.882Z,97369.41
2017-10-03T11:22:00.355Z,97378.03
2017-10-03T11:24:39.479Z,97376.14
2017-10-03T11:27:06.949Z,97375.08
2017-10-03T11:29:34.412Z,97373.70
2017-10-03T11:32:01.895Z,97373.58
2017-10-03T11:34:29.484Z,97367.24
2017-10-03T11:36:56.912Z,97373.37
2017-10-03T11:39:24.403Z,97375.67
2017-10-03T11:41:51.920Z,97366.48
2017-10-03T11:44:19.367Z,97377.14
2017-10-03T11:46:46.774Z,97369.89
2017-10-03T11:49:14.277Z,97360.81
2017-10-03T11:51:41.708Z,97353.45
2017-10-03T11:54:09.123Z,97358.80
2017-10-03T11:56:36.585Z,97359.23
2017-10-03T11:59:04.043Z,97365.11
2017-10-03T12:01:31.452Z,97365.36
2017-10-03T12:03:58.926Z,97365.02
2017-10-03T12:06:26.370Z,97351.74
2017-10-03T12:08:53.783Z,97355.94
2017-10-03T12:11:21.227Z,97353.62
2017-10-03T12:13:48.635Z,97356.27
2017-10-03T12:16:16.061Z,97352.97
2017-10-03T12:18:43.646Z,97351.39
2017-10-03T12:21:11.047Z,97357.34
2017-10-03T12:23:38.474Z,97359.62
2017-10-03T12:26:05.922Z,97354.88
2017-10-03T12:28:33.324Z,97357.95
2017-10-03T12:31:00.735Z,97359.09
2017-10-03T12:33:28.249Z,97353.09
2017-10-03T12:35:55.659Z,97362.81
2017-10-03T12:38:23.096Z,97362.06
2017-10-03T12:40:50.548Z,97369.47
2017-10-03T12:43:17.962Z,97366.73
2017-10-03T12:45:45.374Z,97368.01
2017-10-03T12:48:12.847Z,97371.14
2017-10-03T12:50:40.252Z,97362.36
2017-10-03T12:53:07.694Z,97365.88
2017-10-03T12:55:35.136Z,97364.63
2017-10-03T12:58:02.550Z,97368.83
2017-10-03T13:00:29.963Z,97372.55
2017-10-03T13:02:57.430Z,97363.98
2017-10-03T13:05:24.960Z,97360.69
2017-10-03T13:07:52.377Z,97367.41
2017-10-03T13:10:19.962Z,97361.50
2017-10-03T13:12:47.396Z,97354.22
2017-10-03T13:15:14.865Z,97362.57
2017-10-03T13:17:42.306Z,97369.55
2017-10-03T13:20:09.716Z,97372.29
2017-10-03T13:22:37.124Z,97373.23
2017-10-03T13:25:04.582Z,97365.62
2017-10-03T13:27:32.108Z,97367.11
2017-10-03T13:29:59.529Z,97370.80
2017-10-03T13:32:26.962Z,97380.52
2017-10-03T13:34:54.378Z,97377.53
2017-10-03T13:37:21.802Z,97382.06
2017-10-03T13:39:49.268Z,97383.35
2017-10-03T13:42:16.722Z,97382.28
2017-10-03T13:44:44.146Z,97387.98
2017-10-03T13:47:11.595Z,97379.45
2017-10-03T13:49:39.019Z,97387.88
2017-10-03T13:52:06.523Z,97392.13
2017-10-03T13:54:33.974Z,97388.49
2017-10-03T13:57:01.509Z,97394.65
2017-10-03T13:59:28.925Z,97390.41
2017-10-03T14:01:56.383Z,97391.23
2017-10-03T14:04:23.824Z,97391.05
2017-10-03T14:06:51.241Z,97393.16
2017-10-03T14:09:18.901Z,97392.94
2017-10-03T14:11:46.327Z,97385.23
2017-10-03T14:14:13.763Z,97390.42
2017-10-03T14:16:41.213Z,97388.73
2017-10-03T14:19:08.645Z,97389.69
2017-10-03T14:21:36.071Z,97385.66
2017-10-03T14:24:03.661Z,97393.37
2017-10-03T14:26:31.081Z,97389.77
2017-10-03T14:28:58.502Z,97381.13
2017-10-03T14:31:26.008Z,97386.22
2017-10-03T14:33:53.417Z,97388.35
2017-10-03T14:36:20.839Z,97391.19
2017-10-03T14:38:48.291Z,97395.30
2017-10-03T14:41:15.702Z,97400.95
2017-10-03T14:43:43.123Z,97397.91
2017-10-03T14:46:10.742Z,97403.17
2017-10-03T14:48:38.194Z,97398.94
2017-10-03T14:51:05.604Z,97402.41
2017-10-03T14:53:33.128Z,97398.64
2017-10-03T14:56:00.543Z,97401.89
2017-10-03T14:58:28.051Z,97401.34
2017-10-03T15:00:55.616Z,97410.55
2017-10-03T15:03:23.033Z,97408.92
2017-10-03T15:05:50.465Z,97412.09
2017-10-03T15:08:18.051Z,97416.63
2017-10-03T15:10:45.487Z,97415.48
2017-10-03T15:13:12.930Z,97413.68
2017-10-03T15:15:40.371Z,97414.41
2017-10-03T15:18:08.788Z,97412.86
2017-10-03T15:20:36.210Z,97416.76
2017-10-03T15:23:03.706Z,97423.83
2017-10-03T15:25:31.119Z,97421.39
2017-10-03T15:27:58.536Z,97421.52
2017-10-03T15:30:26.143Z,97428.24
2017-10-03T15:32:53.766Z,97433.60
2017-10-03T15:35:21.179Z,97427.17
2017-10-03T15:37:48.632Z,97425.92
2017-10-03T15:40:16.046Z,97432.02
2017-10-03T15:42:43.477Z,97428.20
2017-10-03T15:45:11.042Z,97427.39
2017-10-03T15:47:38.468Z,97435.19
2017-10-03T15:50:05.902Z,97436.34
2017-10-03T15:52:33.339Z,97445.17
2017-10-03T15:55:00.745Z,97447.15
2017-10-03T15:57:28.181Z,97449.25
2017-10-03T15:59:55.654Z,97445.34
2017-10-03T16:02:23.066Z,97454.91
2017-10-03T16:04:52.447Z,97449.22
2017-10-03T16:07:19.886Z,97459.58
2017-10-03T16:09:47.302Z,97458.72
2017-10-03T16:12:14.718Z,97454.73
2017-10-03T16:14:42.213Z,97464.97
2017-10-03T16:17:09.768Z,97462.32
2017-10-03T16:19:37.175Z,97465.48
2017-10-03T16:22:05.656Z,97463.69
2017-10-03T16:24:33.090Z,97468.23
2017-10-03T16:27:00.520Z,97469.17
2017-10-03T16:29:28.705Z,97483.49
2017-10-03T16:31:56.142Z,97489.10
2017-10-03T16:34:23.546Z,97494.34
2017-10-03T16:36:50.995Z,97504.94
2017-10-03T16:39:18.412Z,97503.41
2017-10-03T16:41:45.824Z,97503.66
2017-10-03T16:44:13.386Z,97509.39
2017-10-03T16:46:41.492Z,97519.97
2017-10-03T16:49:09.128Z,97528.10
2017-10-03T16:51:36.727Z,97529.08
2017-10-03T16:54:04.189Z,97534.72
2017-10-03T16:56:31.613Z,97525.03
2017-10-03T16:58:59.223Z,97533.04
2017-10-03T17:01:26.695Z,97536.55
2017-10-03T17:03:54.203Z,97538.52
2017-10-03T17:06:21.763Z,97547.05
2017-10-03T17:08:49.239Z,97560.98
2017-10-03T17:11:16.682Z,97561.41
2017-10-03T17:13:44.169Z,97561.92
2017-10-03T17:16:11.658Z,97564.79
2017-10-03T17:18:39.104Z,97574.39
2017-10-03T17:21:06.631Z,97574.27
2017-10-03T17:23:34.047Z,97572.59
2017-10-03T17:26:01.476Z,97572.71
2017-10-03T17:28:28.916Z,97573.02
2017-10-03T17:30:56.374Z,97578.92
2017-10-03T17:33:23.794Z,97580.08
2017-10-03T17:35:51.304Z,97579.14
2017-10-03T17:38:18.715Z,97585.87
2017-10-03T17:40:46.146Z,97598.52
2017-10-03T17:43:13.751Z,97602.63
2017-10-03T17:45:41.158Z,97608.54
2017-10-03T17:48:08.568Z,97618.02
2017-10-03T17:50:36.144Z,97620.24
2017-10-03T17:53:03.575Z,97625.30
2017-10-03T17:55:31.011Z,97624.56
2017-10-03T17:57:58.601Z,97625.20
2017-10-03T18:00:26.002Z,97625.55
2017-10-03T18:02:53.411Z,97628.77
2017-10-03T18:05:20.912Z,97632.46
2017-10-03T18:07:48.345Z,97630.70
2017-10-03T18:10:15.810Z,97634.81
2017-10-03T18:12:43.269Z,97639.56
2017-10-03T18:15:10.900Z,97644.61
2017-10-03T18:17:38.610Z,97651.47
2017-10-03T18:20:06.448Z,97659.27
2017-10-03T18:22:34.263Z,97660.97
2017-10-03T18:25:02.081Z,97661.83
2017-10-03T18:27:30.150Z,97670.14
2017-10-03T18:29:58.110Z,97665.09
2017-10-03T18:32:25.623Z,97680.28
2017-10-03T18:34:53.646Z,97683.55
2017-10-03T18:37:21.130Z,97683.90
2017-10-03T18:39:48.917Z,97684.41
2017-10-03T18:42:16.824Z,97678.11
2017-10-03T18:44:44.337Z,97681.16
2017-10-03T18:47:11.834Z,97685.15
2017-10-03T18:49:39.691Z,97691.16
2017-10-03T18:52:08.414Z,97690.94
2017-10-03T18:54:36.213Z,97688.31
2017-10-03T18:57:04.218Z,97689.56
2017-10-03T18:59:32.104Z,97687.89
2017-10-03T19:01:59.959Z,97687.87
2017-10-03T19:04:27.836Z,97694.94
2017-10-03T19:06:55.918Z,97694.30
2017-10-03T19:09:23.778Z,97694.09
2017-10-03T19:11:51.639Z,97698.84
2017-10-03T19:14:19.510Z,97699.87
2017-10-03T19:16:47.382Z,97705.60
2017-10-03T19:19:15.237Z,97713.73
2017-10-03T19:21:43.036Z,97712.88
2017-10-03T19:24:11.085Z,97722.90
2017-10-03T19:26:39.350Z,97726.14
2017-10-03T19:29:07.224Z,97729.66
2017-10-03T19:31:35.081Z,97733.23
2017-10-03T19:34:03.153Z,97732.80
2017-10-03T19:36:31.029Z,97730.91
2017-10-03T19:38:58.878Z,97720.46
2017-10-03T19:41:26.878Z,97725.42
2017-10-03T19:43:54.733Z,97721.31
2017-10-03T19:46:22.585Z,97724.89
2017-10-03T19:48:50.864Z,97721.93
2017-10-03T19:51:18.486Z,97728.91
2017-10-03T19:53:45.901Z,97726.16
2017-10-03T19:56:13.484Z,97736.81
2017-10-03T19:58:40.904Z,97734.50
2017-10-03T20:01:08.398Z,97730.05
2017-10-03T20:03:36.550Z,97732.48
2017-10-03T20:06:04.407Z,97738.19
2017-10-03T20:08:31.896Z,97734.50
2017-10-03T20:10:59.519Z,97739.34
2017-10-03T20:13:27.028Z,97733.75
2017-10-03T20:15:54.437Z,97741.88
2017-10-03T20:18:22.008Z,97749.89
2017-10-03T20:20:49.436Z,97754.21
2017-10-03T20:23:16.842Z,97757.70
2017-10-03T20:25:44.367Z,97759.48
2017-10-03T20:28:11.868Z,97753.59
2017-10-03T20:30:39.461Z,97756.77
2017-10-03T20:33:07.292Z,97755.52
2017-10-03T20:35:34.714Z,97753.82
2017-10-03T20:38:02.159Z,97751.18
2017-10-03T20:40:37.711Z,97756.75
2017-10-03T20:43:05.117Z,97757.81
2017-10-03T20:45:32.564Z,97757.30
2017-10-03T20:48:00.367Z,97751.81
2017-10-03T20:50:27.777Z,97748.53
2017-10-03T20:52:55.220Z,97746.52
2017-10-03T20:55:22.841Z,97758.84
2017-10-03T20:57:50.266Z,97751.80
2017-10-03T21:00:17.677Z,97755.70
2017-10-03T21:02:45.134Z,97764.97
2017-10-03T21:05:12.562Z,97770.97
2017-10-03T21:07:39.990Z,97767.39
2017-10-03T21:10:07.818Z,97767.80
2017-10-03T21:12:35.226Z,97769.50
2017-10-03T21:15:02.654Z,97767.16
2017-10-03T21:17:30.260Z,97762.64
2017-10-03T21:19:57.669Z,97763.30
2017-10-03T21:22:25.076Z,97766.14
2017-10-03T21:24:52.541Z,97769.73
2017-10-03T21:27:19.958Z,97777.10
2017-10-03T21:29:47.370Z,97780.05
2017-10-03T21:32:14.835Z,97773.61
2017-10-03T21:34:42.247Z,97784.25
2017-10-03T21:37:09.766Z,97784.16
2017-10-03T21:39:37.280Z,97782.57
2017-10-03T21:45:07.571Z,97775.30
2017-10-03T21:47:34.999Z,97780.91
2017-10-03T21:50:02.411Z,97785.96
2017-10-03T21:52:29.878Z,97791.02
2017-10-03T21:54:57.379Z,97794.71
2017-10-03T21:57:24.800Z,97795.14
2017-10-03T21:59:52.245Z,97804.10
2017-10-03T22:02:19.659Z,97810.95
2017-10-03T22:04:47.067Z,97813.39
2017-10-03T22:07:14.844Z,97808.97
2017-10-03T22:09:42.258Z,97808.97
2017-10-03T22:12:09.675Z,97810.85
2017-10-03T22:14:37.522Z,97815.48
2017-10-03T22:17:04.934Z,97809.69
2017-10-03T22:19:32.347Z,97817.39
2017-10-03T22:21:59.905Z,97815.41
2017-10-03T22:24:27.320Z,97816.67
2017-10-03T22:26:54.731Z,97812.44
2017-10-03T22:29:22.177Z,97818.04
2017-10-03T22:31:49.613Z,97811.80
2017-10-03T22:34:17.581Z,97813.30
2017-10-03T22:36:45.031Z,97808.21
2017-10-03T22:39:12.439Z,97807.19
2017-10-03T22:41:39.863Z,97816.55
2017-10-03T22:44:07.342Z,97805.38
2017-10-03T22:46:34.745Z,97802.84
2017-10-03T22:49:02.154Z,97798.42
2017-10-03T22:51:35.238Z,97803.05
2017-10-03T22:54:02.690Z,97794.95
2017-10-03T22:56:30.104Z,97795.80
2017-10-03T22:58:57.671Z,97797.56
2017-10-03T23:01:25.084Z,97804.09
2017-10-03T23:03:52.589Z,97808.02
2017-10-03T23:06:20.350Z,97806.22
2017-10-03T23:08:47.772Z,97801.17
2017-10-03T23:11:15.181Z,97806.45
2017-10-03T23:13:42.824Z,97804.02
2017-10-03T23:16:10.231Z,97804.02
2017-10-03T23:18:37.630Z,97804.84
2017-10-03T23:21:05.187Z,97802.66
2017-10-03T23:23:32.601Z,97797.87
2017-10-03T23:26:00.031Z,97794.00
2017-10-03T23:28:27.475Z,97792.09
2017-10-03T23:30:54.891Z,97789.89
2017-10-03T23:33:22.574Z,97795.06
2017-10-03T23:35:50.114Z,97795.26
2017-10-03T23:38:17.536Z,97795.15
2017-10-03T23:40:44.987Z,97792.52
2017-10-03T23:43:12.460Z,97789.16
2017-10-03T23:45:39.861Z,97791.24
2017-10-03T23:48:07.301Z,97789.24
2017-10-03T23:50:34.763Z,97789.98
2017-10-03T23:53:02.221Z,97781.88
2017-10-03T23:55:29.646Z,97787.36
2017-10-03T23:57:57.087Z,97783.25
